Time;durP1;ratioP1;P1;durP2;ratioP2;P2;SDS_P1;SDS_P2;PMS_P1;PMS_P2;Temp;Humidity;BMP_temperature;BMP_pressure;BME280_temperature;BME280_humidity;BME280_pressure;Samples;Min_cycle;Max_cycle;Signal;HPM_P1;HPM_P2
2021/06/29 05:51:02;;;;;;;7.10;6.23;;;;;;;21.07;66.96;98483.28;262489;1092;22814;-72
2021/06/29 06:03:20;;;;;;;6.58;5.98;;;;;;;21.87;65.07;98492.20;262730;1093;22895;-73
2021/06/29 06:09:38;;;;;;;6.15;5.65;;;;;;;22.22;64.14;98484.82;263882;1092;22827;-72
2021/06/29 06:15:21;;;;;;;6.73;6.13;;;;;;;22.49;63.01;98476.54;263029;1090;22798;-75
2021/06/29 06:22:15;;;;;;;;;;;;;;;;;;;;;
2021/06/29 06:28:48;;;;;;;;;;;;;;;;;;;;;
2021/06/29 06:35:33;;;;;;;6.90;6.30;;;;;;;23.60;60.35;98462.91;262093;1092;22760;-72
2021/06/29 06:41:37;;;;;;;7.23;6.58;;;;;;;23.97;59.17;98453.72;262196;1093;24469;-75
2021/06/29 06:47:39;;;;;;;7.58;6.80;;;;;;;24.37;58.62;98462.81;262167;1093;23605;-73
2021/06/29 06:54:04;;;;;;;;;;;;;;;;;;;;;
2021/06/29 07:00:32;;;;;;;;;;;;;;;;;;;;;
2021/06/29 07:06:39;;;;;;;;;;;;;;;;;;;;;
2021/06/29 07:12:10;;;;;;;5.80;5.28;;;;;;;25.75;53.24;98447.79;262076;1093;26347;-73
2021/06/29 07:17:56;;;;;;;6.60;6.10;;;;;;;26.00;52.21;98446.90;262119;1092;22789;-73
2021/06/29 07:23:17;;;;;;;6.10;5.60;;;;;;;26.19;51.12;98442.91;262187;1093;25875;-74
2021/06/29 07:29:14;;;;;;;;;;;;;;;;;;;;;
2021/06/29 07:35:18;;;;;;;;;;;;;;;;;;;;;
2021/06/29 07:41:30;;;;;;;6.45;5.95;;;;;;;26.72;49.13;98456.67;262011;1093;22850;-74
2021/06/29 07:47:35;;;;;;;6.75;5.90;;;;;;;26.84;47.99;98460.91;261945;1091;22867;-73
2021/06/29 07:53:08;;;;;;;6.53;5.93;;;;;;;26.85;47.61;98462.45;262091;1092;22820;-74
2021/06/29 07:58:55;;;;;;;7.20;6.50;;;;;;;26.75;47.71;98461.35;262226;1093;22949;-73
2021/06/29 08:04:07;;;;;;;6.23;5.68;;;;;;;26.81;47.20;98471.51;262276;1092;23340;-73
2021/06/29 08:09:35;;;;;;;6.90;6.30;;;;;;;26.87;47.67;98460.86;262293;1092;22758;-73
2021/06/29 08:14:54;;;;;;;6.00;5.50;;;;;;;27.22;47.69;98461.71;262560;1092;22784;-73
2021/06/29 08:20:11;;;;;;;11.98;6.38;;;;;;;27.51;47.45;98466.95;262451;1091;22834;-73
2021/06/29 08:26:01;;;;;;;6.40;5.90;;;;;;;27.70;47.18;98457.28;262338;1093;25858;-75
2021/06/29 08:31:06;;;;;;;7.15;6.45;;;;;;;28.00;47.00;98458.52;262188;1093;22846;-73
2021/06/29 08:36:20;;;;;;;6.68;6.08;;;;;;;28.25;46.81;98460.92;262409;1092;22798;-75
2021/06/29 08:47:17;;;;;;;6.90;6.23;;;;;;;27.93;45.40;98453.08;262368;1092;22739;-74
2021/06/29 08:53:25;;;;;;;6.63;6.08;;;;;;;27.83;45.77;98441.79;261911;1093;22840;-75
2021/06/29 08:59:01;;;;;;;6.58;6.08;;;;;;;27.71;45.96;98442.34;262538;1092;22739;-73
2021/06/29 09:04:55;;;;;;;6.63;6.13;;;;;;;27.57;46.21;98431.52;262046;1093;22780;-74
2021/06/29 09:10:07;;;;;;;6.90;6.33;;;;;;;27.60;46.54;98436.19;262626;1091;22793;-74
2021/06/29 09:15:33;;;;;;;6.83;6.33;;;;;;;27.66;46.75;98451.83;262353;1092;22760;-74
2021/06/29 09:20:51;;;;;;;7.35;6.28;;;;;;;27.62;46.42;98466.83;262557;1093;22806;-73
2021/06/29 09:26:26;;;;;;;;;;;;;;;;;;;;;
2021/06/29 09:32:17;;;;;;;8.85;7.08;;;;;;;27.06;46.51;98473.27;266066;1091;25884;-74
2021/06/29 09:38:39;;;;;;;7.35;6.70;;;;;;;27.01;46.59;98450.94;262424;1093;22793;-75
2021/06/29 09:44:34;;;;;;;7.78;6.98;;;;;;;27.39;47.21;98442.72;262774;1093;26063;-73
2021/06/29 09:50:05;;;;;;;8.43;7.58;;;;;;;28.22;46.62;98445.23;262844;1092;22828;-74
2021/06/29 09:55:56;;;;;;;;;;;;;;;;;;;;;
2021/06/29 10:02:55;;;;;;;;;;;;;;;;;;;;;
2021/06/29 10:08:42;;;;;;;22.83;14.65;;;;;;;28.93;42.80;98428.76;262581;1090;24170;-72
2021/06/29 10:15:19;;;;;;;8.30;6.55;;;;;;;29.35;42.95;98428.42;262965;1090;22757;-73
2021/06/29 10:21:19;;;;;;;5.83;5.33;;;;;;;29.73;41.89;98422.55;262792;1090;22830;-73
2021/06/29 10:27:15;;;;;;;5.15;4.80;;;;;;;29.76;40.49;98432.73;263025;1090;22809;-73
2021/06/29 10:33:03;;;;;;;5.15;4.75;;;;;;;29.44;41.38;98425.88;262306;1090;22780;-72
2021/06/29 10:38:51;;;;;;;6.30;5.75;;;;;;;29.17;42.04;98421.25;263002;1090;27428;-73
2021/06/29 10:51:11;;;;;;;;;;;;;;;;;;;;;
2021/06/29 10:57:16;;;;;;;6.18;5.48;;;;;;;30.03;42.16;98401.41;262817;1089;22766;-73
2021/06/29 11:10:02;;;;;;;5.43;5.03;;;;;;;30.09;40.52;98391.39;263762;1092;22821;-74
2021/06/29 11:15:44;;;;;;;4.90;4.50;;;;;;;29.99;41.13;98395.95;262877;1089;22796;-74
2021/06/29 11:21:18;;;;;;;4.90;4.50;;;;;;;29.79;40.89;98384.95;262762;1089;24432;-73
2021/06/29 11:26:43;;;;;;;5.80;5.30;;;;;;;29.90;41.00;98381.19;262978;1089;24194;-73
2021/06/29 11:32:28;;;;;;;6.18;5.68;;;;;;;29.84;41.59;98376.19;262385;1090;22895;-73
2021/06/29 11:38:39;;;;;;;6.57;6.07;;;;;;;29.97;41.79;98375.50;262784;1089;24345;-74
2021/06/29 11:44:09;;;;;;;5.75;5.25;;;;;;;30.30;42.05;98364.48;262790;1089;24039;-74
2021/06/29 11:49:33;;;;;;;7.50;6.80;;;;;;;30.45;41.12;98349.13;262837;1089;22801;-73
2021/06/29 11:55:04;;;;;;;7.00;6.40;;;;;;;30.65;41.86;98339.95;262713;1089;22763;-73
2021/06/29 12:00:36;;;;;;;6.75;6.15;;;;;;;30.87;40.80;98329.86;262407;1090;22822;-73
2021/06/29 12:05:45;;;;;;;6.83;6.05;;;;;;;30.93;40.52;98318.27;262145;1090;23021;-74
2021/06/29 12:11:12;;;;;;;5.85;5.30;;;;;;;30.92;40.41;98316.72;262403;1089;22775;-73
2021/06/29 12:16:56;;;;;;;6.53;5.85;;;;;;;30.76;40.18;98314.79;262903;1089;22828;-73
2021/06/29 12:23:03;;;;;;;6.50;5.90;;;;;;;30.54;39.91;98288.50;262431;1088;22804;-74
2021/06/29 12:29:10;;;;;;;;;;;;;;;;;;;;;
2021/06/29 12:35:54;;;;;;;6.00;5.50;;;;;;;30.34;40.33;98272.01;262428;1090;22825;-76
2021/06/29 12:41:30;;;;;;;5.60;5.10;;;;;;;30.19;40.60;98245.97;261927;1090;22811;-72
2021/06/29 12:46:44;;;;;;;6.33;5.83;;;;;;;30.24;40.51;98234.41;262971;1088;27073;-74
2021/06/29 12:52:33;;;;;;;6.48;5.80;;;;;;;30.27;40.18;98243.81;262632;1089;22781;-73
2021/06/29 12:57:45;;;;;;;5.80;5.30;;;;;;;30.24;40.41;98230.88;262819;1089;22854;-73
2021/06/29 13:02:55;;;;;;;6.25;5.75;;;;;;;30.31;41.38;98227.92;262511;1089;22794;-73
2021/06/29 13:09:07;;;;;;;;;;;;;;;;;;;;;
2021/06/29 13:14:40;;;;;;;5.88;5.48;;;;;;;30.22;41.04;98225.79;262599;1090;22924;-74
2021/06/29 13:20:33;;;;;;;6.70;5.48;;;;;;;30.34;40.75;98204.94;262612;1089;22759;-74
2021/06/29 13:26:05;;;;;;;6.20;5.63;;;;;;;30.55;40.27;98203.60;262566;1089;23193;-74
2021/06/29 13:31:38;;;;;;;5.63;5.13;;;;;;;30.67;40.58;98197.34;263433;1088;22914;-74
2021/06/29 13:36:51;;;;;;;5.65;5.25;;;;;;;30.77;40.39;98189.95;263596;1089;27634;-75
2021/06/29 13:42:17;;;;;;;6.13;5.55;;;;;;;30.81;40.33;98182.33;263156;1090;22902;-74
2021/06/29 13:47:27;;;;;;;6.80;6.20;;;;;;;30.90;40.14;98170.61;263095;1090;24448;-73
2021/06/29 13:52:51;;;;;;;5.78;5.38;;;;;;;30.91;39.02;98163.08;262653;1088;22847;-73
2021/06/29 13:59:03;;;;;;;;;;;;;;;;;;;;;
2021/06/29 14:05:33;;;;;;;5.63;5.13;;;;;;;31.00;39.66;98141.09;263073;1090;22795;-72
2021/06/29 14:11:12;;;;;;;5.35;4.98;;;;;;;30.99;39.39;98134.80;262732;1090;22757;-73
2021/06/29 14:16:44;;;;;;;5.80;5.40;;;;;;;30.97;40.49;98136.45;262792;1090;22851;-73
2021/06/29 14:22:29;;;;;;;5.70;5.30;;;;;;;31.01;40.12;98137.11;262667;1089;22780;-74
2021/06/29 14:27:54;;;;;;;5.58;5.18;;;;;;;30.91;39.70;98138.20;262759;1089;22757;-73
2021/06/29 14:33:42;;;;;;;5.63;5.13;;;;;;;30.77;40.03;98129.14;262419;1090;22828;-73
2021/06/29 14:39:14;;;;;;;6.00;5.50;;;;;;;30.25;40.52;98119.16;262633;1089;22833;-73
2021/06/29 14:44:46;;;;;;;5.83;5.18;;;;;;;29.75;40.97;98099.95;262673;1089;22758;-74
2021/06/29 14:50:25;;;;;;;5.50;5.10;;;;;;;29.35;41.31;98100.97;262759;1090;24486;-73
2021/06/29 14:55:40;;;;;;;5.65;5.25;;;;;;;29.10;42.47;98100.75;262705;1089;22784;-73
2021/06/29 15:00:56;;;;;;;6.20;5.70;;;;;;;28.94;43.52;98101.52;262605;1090;22780;-73
2021/06/29 15:06:54;;;;;;;6.38;5.83;;;;;;;28.87;44.39;98109.95;262664;1089;22753;-74
2021/06/29 15:12:24;;;;;;;6.43;5.93;;;;;;;28.81;44.83;98080.14;262427;1089;22764;-73
2021/06/29 15:18:19;;;;;;;;;;;;;;;;;;;;;
2021/06/29 15:25:10;;;;;;;7.08;6.43;;;;;;;28.61;45.76;98057.34;262575;1090;25830;-74
2021/06/29 15:30:58;;;;;;;7.40;6.80;;;;;;;28.52;46.48;98044.16;262617;1089;22761;-73
2021/06/29 15:37:06;;;;;;;6.93;6.33;;;;;;;28.37;46.94;98045.67;262696;1089;22777;-73
2021/06/29 15:43:27;;;;;;;8.08;7.38;;;;;;;28.16;47.15;98047.66;262927;1089;22844;-72
2021/06/29 15:49:14;;;;;;;;;;;;;;;;;;;;;
2021/06/29 15:55:12;;;;;;;;;;;;;;;28.09;48.24;98034.81;262757;1090;22854;-73
2021/06/29 16:01:09;;;;;;;8.13;7.23;;;;;;;28.74;48.47;98025.20;262689;1089;24210;-73
2021/06/29 16:06:43;;;;;;;;;;;;;;;;;;;;;
2021/06/29 16:12:22;;;;;;;8.20;7.50;;;;;;;30.08;46.10;98010.75;262559;1089;23015;-73
2021/06/29 16:17:54;;;;;;;7.50;6.55;;;;;;;30.47;45.93;98006.87;262678;1089;22759;-73
2021/06/29 16:29:12;;;;;;;7.30;6.70;;;;;;;30.60;44.23;98012.39;262452;1088;22785;-73
2021/06/29 16:35:23;;;;;;;7.53;6.93;;;;;;;30.43;43.90;98008.97;262588;1089;24342;-73
2021/06/29 16:47:31;;;;;;;8.35;7.65;;;;;;;30.13;43.99;98010.98;262311;1090;23310;-74
2021/06/29 17:06:35;;;;;;;8.08;7.48;;;;;;;29.56;44.93;98013.33;262489;1090;21460;-73
2021/06/29 17:20:15;;;;;;;8.55;7.80;;;;;;;30.92;44.78;98018.09;262717;1090;22762;-73
2021/06/29 17:25:35;;;;;;;8.20;7.35;;;;;;;31.38;44.14;98021.33;262706;1090;22806;-74
2021/06/29 17:32:04;;;;;;;7.93;7.18;;;;;;;31.49;43.50;98018.20;262652;1090;25964;-73
2021/06/29 17:38:32;;;;;;;;;;;;;;;;;;;;;
2021/06/29 17:44:26;;;;;;;;;;;;;;;30.55;43.11;98008.17;262757;1089;22750;-73
2021/06/29 17:50:34;;;;;;;11.48;10.48;;;;;;;29.62;44.46;97999.77;262698;1090;24175;-72
2021/06/29 17:56:47;;;;;;;9.93;9.03;;;;;;;28.83;45.87;97992.28;262617;1089;22773;-73
2021/06/29 18:03:27;;;;;;;9.10;8.30;;;;;;;28.11;46.57;97991.14;262568;1090;24022;-73
2021/06/29 18:09:55;;;;;;;;;;;;;;;;;;;;;
2021/06/29 18:29:48;;;;;;;;;;;;;;;;;;;;;
2021/06/29 18:36:28;;;;;;;;;;;;;;;;;;;;;
2021/06/29 18:49:49;;;;;;;9.53;8.73;;;;;;;24.76;54.22;97941.73;262438;1089;26238;-73
2021/06/29 19:09:58;;;;;;;11.25;9.90;;;;;;;24.13;56.27;97933.52;262367;1089;22767;-75
2021/06/29 19:17:02;;;;;;;10.58;9.60;;;;;;;23.94;56.83;97940.28;262598;1089;25814;-73
2021/06/29 19:23:11;;;;;;;11.10;9.80;;;;;;;23.82;57.18;97944.20;262667;1090;22845;-73
2021/06/29 19:29:23;;;;;;;10.77;9.20;;;;;;;23.73;57.91;97938.39;262621;1090;22801;-73
2021/06/29 19:36:09;;;;;;;14.28;11.33;;;;;;;23.68;58.28;97939.56;262542;1089;22992;-74
2021/06/29 19:41:52;;;;;;;11.38;9.35;;;;;;;23.61;58.45;97928.66;262624;1089;22796;-74
2021/06/29 19:48:34;;;;;;;9.48;8.53;;;;;;;23.49;58.67;97943.55;262674;1088;22757;-73
2021/06/29 19:54:50;;;;;;;9.70;8.78;;;;;;;23.38;59.16;97929.14;262654;1090;22764;-72
2021/06/29 20:01:38;;;;;;;9.75;8.65;;;;;;;23.28;59.68;97930.73;262678;1089;22771;-72
2021/06/29 20:15:06;;;;;;;8.93;8.13;;;;;;;23.19;60.19;97928.38;262582;1087;22757;-74
2021/06/29 20:21:23;;;;;;;;;;;;;;;;;;;;;
2021/06/29 20:27:05;;;;;;;9.13;8.25;;;;;;;23.03;60.63;97917.86;262598;1087;22798;-73
2021/06/29 20:40:34;;;;;;;9.65;8.65;;;;;;;22.78;61.81;97917.11;262421;1087;22838;-72
2021/06/29 20:46:49;;;;;;;8.53;7.83;;;;;;;22.67;62.04;97901.50;262807;1087;22780;-73
2021/06/29 20:52:50;;;;;;;;;;;;;;;;;;;;;
2021/06/29 20:59:06;;;;;;;;;;;;;;;;;;;;;
2021/06/29 21:05:01;;;;;;;9.23;8.35;;;;;;;22.33;63.42;97860.97;262665;1086;22799;-73
2021/06/29 21:10:43;;;;;;;8.93;7.95;;;;;;;22.25;63.74;97851.19;262828;1085;25973;-72
2021/06/29 21:17:45;;;;;;;8.58;7.40;;;;;;;22.14;64.01;97851.17;262856;1087;22791;-73
2021/06/29 21:23:51;;;;;;;9.38;8.53;;;;;;;22.05;64.60;97834.42;262482;1087;27194;-73
2021/06/29 21:30:14;;;;;;;8.33;7.43;;;;;;;21.96;65.23;97821.15;262786;1087;22753;-73
2021/06/29 21:36:24;;;;;;;;;;;;;;;;;;;;;
2021/06/29 21:43:08;;;;;;;9.75;7.45;;;;;;;21.89;65.69;97815.69;262851;1087;22757;-73
2021/06/29 21:49:28;;;;;;;8.77;7.97;;;;;;;21.87;66.63;97821.53;262981;1087;24291;-73
2021/06/29 22:01:55;;;;;;;8.50;7.70;;;;;;;21.75;67.01;97826.58;262645;1086;22780;-73
2021/06/29 22:07:28;;;;;;;9.95;8.95;;;;;;;21.70;67.20;97820.33;262688;1087;22835;-73
2021/06/29 22:13:23;;;;;;;9.05;8.18;;;;;;;21.66;67.31;97805.15;262934;1087;23300;-72
2021/06/29 22:18:41;;;;;;;9.40;8.48;;;;;;;21.59;67.69;97810.55;262904;1087;22801;-73
